METAR AND TAF INFORMATION
METAR FOR KY31
ADDS - METARS form results

(0222 UTC 21 September 2018)
Data provider http://aviationweather.gov/metar/data/
 
METAR text: KY31 210215Z AUTO 07003KT 10SM OVC006 19/18 A2988 RMK AO2 T01880179
Conditions at: KY31 (WEST BRANCH , MI, US) observed 0215 UTC 21 September 2018
Temperature: 18.8°C (66°F)
Dewpoint: 17.9°C (64°F) [RH = 95%]
Pressure (altimeter): 29.88 inches Hg (1011.9 mb)
Winds: from the ENE (70 degrees) at 3 MPH (3 knots; 1.5 m/s)
Visibility: 10 or more miles (16+ km)
Ceiling: 600 feet AGL
Clouds: overcast cloud deck at 600 feet AGL
Weather: automated observation with no human augmentation;
there may or may not be significant weather present at this time

METAR text: KY31 210155Z AUTO 09003KT 10SM OVC008 19/18 A2989 RMK AO2 T01870177
Conditions at: KY31 (WEST BRANCH , MI, US) observed 0155 UTC 21 September 2018
Temperature: 18.7°C (66°F)
Dewpoint: 17.7°C (64°F) [RH = 94%]
Pressure (altimeter): 29.89 inches Hg (1012.3 mb)
Winds: from the E (90 degrees) at 3 MPH (3 knots; 1.5 m/s)
Visibility: 10 or more miles (16+ km)
Ceiling: 800 feet AGL
Clouds: overcast cloud deck at 800 feet AGL
Weather: automated observation with no human augmentation;
there may or may not be significant weather present at this time

METAR text: KY31 210135Z AUTO 08003KT 10SM OVC008 19/18 A2990 RMK AO2 T01860176
Conditions at: KY31 (WEST BRANCH , MI, US) observed 0135 UTC 21 September 2018
Temperature: 18.6°C (65°F)
Dewpoint: 17.6°C (64°F) [RH = 94%]
Pressure (altimeter): 29.90 inches Hg (1012.6 mb)
Winds: from the E (80 degrees) at 3 MPH (3 knots; 1.5 m/s)
Visibility: 10 or more miles (16+ km)
Ceiling: 800 feet AGL
Clouds: overcast cloud deck at 800 feet AGL
Weather: automated observation with no human augmentation;
there may or may not be significant weather present at this time

 AIRPORT MAP

 RUNWAY INFORMATION
Runway 09 Runway length 5000 ft Runway width 100 ft
Runway elevation 881 ft Runway displaced threshold 0 ft Runway heading 89
Runway 27 Runway length 5000 ft Runway width 100 ft
Runway elevation 860 ft Runway displaced threshold 0 ft Runway heading 269

 AIRPORT FREQUENCIES
Type CNTR Name MINNEAPOLI Frequency 118.525 MHZ
Type RDO Name LANSING RD Frequency 122.35 MHZ
Type UNIC Name CTAF/UNICO Frequency 122.8 MHZ

 AIRPORT NEAR NAVIGATION AIDS



Powered by Virtual Airlines Manager [v2.6.2]